createdAt,value
2023-01-13T00:00:15.603Z,99.90
2023-01-13T00:02:42.285Z,99.90
2023-01-13T00:05:10.155Z,99.90
2023-01-13T00:07:38.294Z,99.90
2023-01-13T00:10:05.468Z,99.90
2023-01-13T00:12:32.350Z,99.90
2023-01-13T00:14:59.022Z,99.90
2023-01-13T00:17:25.877Z,99.90
2023-01-13T00:19:52.710Z,99.90
2023-01-13T00:22:19.326Z,99.90
2023-01-13T00:24:52.268Z,99.90
2023-01-13T00:27:18.938Z,99.90
2023-01-13T00:29:45.629Z,99.90
2023-01-13T00:32:12.503Z,99.90
2023-01-13T00:34:39.377Z,99.90
2023-01-13T00:37:06.112Z,99.90
2023-01-13T00:39:32.908Z,99.90
2023-01-13T00:42:19.512Z,99.90
2023-01-13T00:44:46.286Z,99.90
2023-01-13T00:47:13.202Z,99.90
2023-01-13T00:49:39.974Z,99.90
2023-01-13T00:52:06.761Z,99.90
2023-01-13T00:54:33.758Z,99.90
2023-01-13T00:57:00.475Z,99.90
2023-01-13T00:59:27.168Z,99.90
2023-01-13T01:01:53.994Z,99.90
2023-01-13T01:04:20.864Z,99.90
2023-01-13T01:06:47.921Z,99.90
2023-01-13T01:09:15.429Z,99.90
2023-01-13T01:11:42.548Z,99.90
2023-01-13T01:14:10.526Z,99.90
2023-01-13T01:16:38.083Z,99.90
2023-01-13T01:19:05.255Z,99.90
2023-01-13T01:21:32.491Z,99.90
2023-01-13T01:24:00.510Z,99.90
2023-01-13T01:26:28.161Z,99.90
2023-01-13T01:28:55.208Z,99.90
2023-01-13T01:31:23.217Z,99.90
2023-01-13T01:33:50.439Z,99.90
2023-01-13T01:36:18.388Z,99.90
2023-01-13T01:38:45.225Z,99.90
2023-01-13T01:41:16.891Z,99.90
2023-01-13T01:44:22.322Z,99.90
2023-01-13T01:46:49.155Z,99.90
2023-01-13T01:49:37.913Z,99.90
2023-01-13T01:52:07.483Z,99.90
2023-01-13T01:54:38.407Z,99.90
2023-01-13T01:57:05.806Z,99.90
2023-01-13T01:59:33.621Z,99.90
2023-01-13T02:02:00.630Z,99.90
2023-01-13T02:04:39.044Z,99.90
2023-01-13T02:07:05.974Z,99.90
2023-01-13T02:09:33.048Z,99.90
2023-01-13T02:12:18.101Z,99.90
2023-01-13T02:14:45.511Z,99.90
2023-01-13T02:17:32.346Z,99.90
2023-01-13T02:20:11.322Z,99.90
2023-01-13T02:22:38.135Z,99.90
2023-01-13T02:27:49.301Z,99.90
2023-01-13T02:30:44.976Z,99.90
2023-01-13T02:33:26.622Z,99.90
2023-01-13T02:36:11.952Z,99.90
2023-01-13T02:38:42.054Z,99.90
2023-01-13T02:41:34.403Z,99.90
2023-01-13T02:44:09.284Z,99.90
2023-01-13T02:46:49.354Z,99.90
2023-01-13T02:49:19.680Z,99.90
2023-01-13T02:51:47.171Z,99.90
2023-01-13T02:54:16.026Z,99.90
2023-01-13T02:56:44.362Z,99.90
2023-01-13T02:59:12.568Z,99.90
2023-01-13T03:01:39.494Z,99.90
2023-01-13T03:04:35.537Z,99.90
2023-01-13T03:07:09.773Z,99.90
2023-01-13T03:09:39.735Z,99.90
2023-01-13T03:12:14.606Z,99.90
2023-01-13T03:14:51.937Z,99.90
2023-01-13T03:17:37.127Z,99.90
2023-01-13T03:20:09.317Z,99.90
2023-01-13T03:22:35.956Z,99.90
2023-01-13T03:25:08.395Z,99.90
2023-01-13T03:27:35.125Z,99.90
2023-01-13T03:30:01.921Z,99.90
2023-01-13T03:32:38.813Z,99.90
2023-01-13T03:35:10.518Z,99.90
2023-01-13T03:37:39.503Z,99.90
2023-01-13T03:40:12.684Z,99.90
2023-01-13T03:42:39.832Z,99.90
2023-01-13T03:45:18.015Z,99.90
2023-01-13T03:47:48.792Z,99.90
2023-01-13T03:50:19.734Z,99.90
2023-01-13T03:52:58.726Z,99.90
2023-01-13T03:55:31.265Z,99.90
2023-01-13T03:58:01.446Z,99.90
2023-01-13T04:00:31.194Z,99.90
2023-01-13T04:03:01.871Z,99.90
2023-01-13T04:05:28.852Z,99.90
2023-01-13T04:08:07.210Z,99.90
2023-01-13T04:10:35.726Z,99.90
2023-01-13T04:13:05.424Z,99.90
2023-01-13T04:15:37.329Z,99.90
2023-01-13T04:18:24.949Z,99.90
2023-01-13T04:20:52.733Z,99.90
2023-01-13T04:23:20.377Z,99.90
2023-01-13T04:25:47.749Z,99.90
2023-01-13T04:28:14.654Z,99.90
2023-01-13T04:30:42.382Z,99.90
2023-01-13T04:33:09.521Z,99.90
2023-01-13T04:35:36.443Z,99.90
2023-01-13T04:38:04.354Z,99.90
2023-01-13T04:40:31.437Z,99.90
2023-01-13T04:42:58.201Z,99.90
2023-01-13T04:45:25.076Z,99.90
2023-01-13T04:47:51.903Z,99.90
2023-01-13T04:50:19.899Z,99.90
2023-01-13T04:52:47.853Z,99.90
2023-01-13T04:55:15.603Z,99.90
2023-01-13T04:57:42.826Z,99.90
2023-01-13T05:00:11.877Z,99.90
2023-01-13T05:02:38.709Z,99.90
2023-01-13T05:05:05.756Z,99.90
2023-01-13T05:07:32.864Z,99.90
2023-01-13T05:09:59.805Z,99.90
2023-01-13T05:12:45.139Z,99.90
2023-01-13T05:15:31.548Z,99.90
2023-01-13T05:17:58.485Z,99.90
2023-01-13T05:20:25.785Z,99.90
2023-01-13T05:23:14.299Z,99.90
2023-01-13T05:25:47.316Z,99.90
2023-01-13T05:28:14.330Z,99.90
2023-01-13T05:30:42.539Z,99.90
2023-01-13T05:33:14.044Z,99.90
2023-01-13T05:35:41.867Z,99.90
2023-01-13T05:38:08.929Z,99.90
2023-01-13T05:40:54.368Z,99.90
2023-01-13T05:43:24.868Z,99.90
2023-01-13T05:45:53.556Z,99.90
2023-01-13T05:48:21.502Z,99.90
2023-01-13T05:50:49.609Z,99.90
2023-01-13T05:53:17.262Z,99.90
2023-01-13T05:55:52.387Z,99.90
2023-01-13T05:58:20.161Z,99.90
2023-01-13T06:00:47.208Z,99.90
2023-01-13T06:03:14.247Z,99.90
2023-01-13T06:05:41.298Z,99.90
2023-01-13T06:08:13.527Z,99.90
2023-01-13T06:10:40.243Z,99.90
2023-01-13T06:13:07.049Z,99.90
2023-01-13T06:15:33.663Z,99.90
2023-01-13T06:18:01.721Z,99.90
2023-01-13T06:20:28.347Z,99.90
2023-01-13T06:22:54.936Z,99.90
2023-01-13T06:25:28.901Z,99.90
2023-01-13T06:27:56.432Z,99.90
2023-01-13T06:30:22.918Z,99.90
2023-01-13T06:32:52.033Z,99.90
2023-01-13T06:35:20.660Z,99.90
2023-01-13T06:37:49.260Z,99.90
2023-01-13T06:40:16.630Z,99.90
2023-01-13T06:43:01.965Z,99.90
2023-01-13T06:45:30.005Z,99.90
2023-01-13T06:47:58.471Z,99.90
2023-01-13T06:50:25.375Z,99.90
2023-01-13T06:52:52.034Z,99.90
2023-01-13T06:55:18.782Z,99.90
2023-01-13T06:58:03.261Z,99.90
2023-01-13T07:00:33.661Z,99.90
2023-01-13T07:03:09.349Z,99.90
2023-01-13T07:05:36.117Z,99.90
2023-01-13T07:08:02.728Z,99.90
2023-01-13T07:10:30.062Z,99.90
2023-01-13T07:13:16.624Z,99.90
2023-01-13T07:15:52.111Z,99.90
2023-01-13T07:18:18.742Z,99.90
2023-01-13T07:20:51.349Z,99.90
2023-01-13T07:23:18.021Z,99.90
2023-01-13T07:25:44.725Z,99.90
2023-01-13T07:28:11.385Z,99.90
2023-01-13T07:30:38.146Z,99.90
2023-01-13T07:33:04.743Z,99.90
2023-01-13T07:35:31.346Z,99.90
2023-01-13T07:37:58.079Z,99.90
2023-01-13T07:40:24.721Z,99.90
2023-01-13T07:43:10.273Z,99.90
2023-01-13T07:45:36.940Z,99.90
2023-01-13T07:48:03.648Z,99.90
2023-01-13T07:50:30.318Z,99.90
2023-01-13T07:53:00.083Z,99.90
2023-01-13T07:55:26.775Z,99.90
2023-01-13T07:57:53.401Z,99.90
2023-01-13T08:00:20.262Z,99.90
2023-01-13T08:02:47.119Z,99.90
2023-01-13T08:05:13.927Z,99.90
2023-01-13T08:07:40.689Z,99.90
2023-01-13T08:10:07.735Z,99.90
2023-01-13T08:12:55.130Z,99.90
2023-01-13T08:15:23.518Z,99.90
2023-01-13T08:17:50.372Z,99.90
2023-01-13T08:20:17.180Z,99.90
2023-01-13T08:22:46.259Z,99.90
2023-01-13T08:25:12.826Z,99.90
2023-01-13T08:27:39.848Z,99.90
2023-01-13T08:30:07.007Z,99.90
2023-01-13T08:32:33.671Z,99.90
2023-01-13T08:35:00.256Z,99.90
2023-01-13T08:37:26.855Z,99.90
2023-01-13T08:39:53.547Z,99.90
2023-01-13T08:42:20.121Z,99.90
2023-01-13T08:44:46.736Z,99.90
2023-01-13T08:47:13.360Z,99.90
2023-01-13T08:49:40.012Z,99.90
2023-01-13T08:52:08.821Z,99.90
2023-01-13T08:54:38.474Z,99.90
2023-01-13T08:57:05.547Z,99.90
2023-01-13T08:59:32.778Z,99.90
2023-01-13T09:01:59.634Z,99.90
2023-01-13T09:04:27.811Z,99.90
2023-01-13T09:06:54.820Z,99.90
2023-01-13T09:09:21.869Z,99.90
2023-01-13T09:12:08.167Z,99.90
2023-01-13T09:14:36.525Z,99.90
2023-01-13T09:17:07.542Z,99.90
2023-01-13T09:19:36.554Z,99.90
2023-01-13T09:22:06.812Z,99.90
2023-01-13T09:24:33.799Z,99.90
2023-01-13T09:27:00.741Z,99.90
2023-01-13T09:29:27.695Z,99.90
2023-01-13T09:31:54.482Z,99.90
2023-01-13T09:34:39.767Z,99.90
2023-01-13T09:37:12.334Z,99.90
2023-01-13T09:39:41.925Z,99.90
2023-01-13T09:42:46.056Z,99.90
2023-01-13T09:45:26.397Z,99.90
2023-01-13T09:48:12.167Z,99.90
2023-01-13T09:50:50.307Z,99.90
2023-01-13T09:53:25.712Z,99.90
2023-01-13T09:55:53.026Z,99.90
2023-01-13T09:58:20.097Z,99.90
2023-01-13T10:00:58.974Z,99.90
2023-01-13T10:03:27.615Z,99.90
2023-01-13T10:05:56.499Z,99.90
2023-01-13T10:08:28.255Z,99.90
2023-01-13T10:10:59.390Z,99.70
2023-01-13T10:13:28.002Z,99.00
2023-01-13T10:15:56.964Z,99.70
2023-01-13T10:18:41.915Z,99.10
2023-01-13T10:21:28.532Z,98.70
2023-01-13T10:24:01.704Z,98.90
2023-01-13T10:26:31.299Z,98.60
2023-01-13T10:28:58.463Z,98.60
2023-01-13T10:31:26.202Z,98.10
2023-01-13T10:34:03.802Z,98.60
2023-01-13T10:36:30.729Z,98.90
2023-01-13T10:39:08.821Z,99.00
2023-01-13T10:41:36.380Z,99.10
2023-01-13T10:44:06.745Z,99.90
2023-01-13T10:46:35.743Z,99.90
2023-01-13T10:49:06.236Z,99.90
2023-01-13T10:51:39.137Z,99.90
2023-01-13T10:54:12.736Z,99.90
2023-01-13T10:59:24.245Z,99.90
2023-01-13T11:01:54.804Z,99.90
2023-01-13T11:04:29.095Z,99.90
2023-01-13T11:06:56.359Z,99.90
2023-01-13T11:09:25.145Z,99.90
2023-01-13T11:11:55.461Z,99.90
2023-01-13T11:14:33.626Z,99.90
2023-01-13T11:17:01.745Z,99.90
2023-01-13T11:19:30.796Z,99.90
2023-01-13T11:22:17.095Z,99.90
2023-01-13T11:24:43.809Z,99.90
2023-01-13T11:27:23.933Z,99.90
2023-01-13T11:30:09.924Z,99.90
2023-01-13T11:32:56.147Z,99.90
2023-01-13T11:35:23.846Z,99.90
2023-01-13T11:37:57.426Z,99.90
2023-01-13T11:40:35.990Z,99.90
2023-01-13T11:43:41.279Z,99.90
2023-01-13T11:46:09.761Z,99.90
2023-01-13T11:48:37.917Z,99.90
2023-01-13T11:51:13.506Z,99.90
2023-01-13T11:53:58.879Z,99.90
2023-01-13T11:59:56.287Z,99.90
2023-01-13T12:02:46.113Z,99.90
2023-01-13T12:05:28.223Z,99.90
2023-01-13T12:07:54.741Z,99.90
2023-01-13T12:10:40.114Z,99.90
2023-01-13T12:13:12.776Z,99.90
2023-01-13T12:16:11.957Z,99.90
2023-01-13T12:18:38.534Z,99.90
2023-01-13T12:21:22.041Z,99.90
2023-01-13T12:23:57.846Z,99.90
2023-01-13T12:26:24.666Z,99.90
2023-01-13T12:29:10.966Z,99.90
2023-01-13T12:31:38.720Z,99.90
2023-01-13T12:34:17.851Z,99.90
2023-01-13T12:36:52.678Z,99.90
2023-01-13T12:39:33.013Z,99.90
2023-01-13T12:42:23.366Z,99.90
2023-01-13T12:45:08.445Z,99.90
2023-01-13T12:47:35.176Z,99.90
2023-01-13T12:50:20.673Z,99.90
2023-01-13T12:52:47.711Z,99.90
2023-01-13T12:55:16.587Z,99.90
2023-01-13T12:58:01.873Z,99.90
2023-01-13T13:00:31.245Z,99.90
2023-01-13T13:03:18.593Z,99.90
2023-01-13T13:05:49.232Z,99.90
2023-01-13T13:08:21.642Z,99.90
2023-01-13T13:11:02.105Z,99.90
2023-01-13T13:13:48.118Z,99.90
2023-01-13T13:16:26.946Z,99.90
2023-01-13T13:19:13.562Z,99.90
2023-01-13T13:22:12.772Z,99.90
2023-01-13T13:24:40.473Z,99.90
2023-01-13T13:30:15.523Z,99.90
2023-01-13T13:32:54.555Z,99.90
2023-01-13T13:35:27.414Z,99.90
2023-01-13T13:38:16.835Z,99.90
2023-01-13T13:41:04.057Z,99.90
2023-01-13T13:43:57.850Z,99.90
2023-01-13T13:46:46.015Z,99.90
2023-01-13T13:49:20.386Z,99.90
2023-01-13T13:51:48.855Z,99.90
2023-01-13T13:54:20.956Z,99.90
2023-01-13T13:56:48.827Z,99.90
2023-01-13T13:59:19.816Z,99.90
2023-01-13T14:01:50.479Z,99.90
2023-01-13T14:04:25.935Z,99.90
2023-01-13T14:06:57.010Z,99.90
2023-01-13T14:09:24.412Z,99.90
2023-01-13T14:11:55.810Z,99.90
2023-01-13T14:14:23.002Z,99.90
2023-01-13T14:16:51.771Z,99.90
2023-01-13T14:19:44.241Z,99.90
2023-01-13T14:22:16.275Z,99.90
2023-01-13T14:24:46.847Z,99.90
2023-01-13T14:27:15.642Z,99.90
2023-01-13T14:29:45.206Z,99.90
2023-01-13T14:32:17.484Z,99.90
2023-01-13T14:34:44.472Z,99.90
2023-01-13T14:37:23.323Z,99.90
2023-01-13T14:39:50.096Z,99.90
2023-01-13T14:42:17.120Z,99.90
2023-01-13T14:44:47.538Z,99.90
2023-01-13T14:47:25.434Z,99.90
2023-01-13T14:49:52.173Z,99.90
2023-01-13T14:52:23.238Z,99.90
2023-01-13T14:54:51.728Z,99.90
2023-01-13T14:57:34.200Z,99.90
2023-01-13T15:00:00.833Z,99.90
2023-01-13T15:02:30.324Z,99.90
2023-01-13T15:05:00.828Z,99.90
2023-01-13T15:07:28.998Z,99.90
2023-01-13T15:09:57.258Z,99.90
2023-01-13T15:12:30.440Z,99.90
2023-01-13T15:14:57.330Z,99.90
2023-01-13T15:17:24.201Z,99.90
2023-01-13T15:19:54.907Z,99.90
2023-01-13T15:22:21.849Z,99.90
2023-01-13T15:24:48.967Z,99.90
2023-01-13T15:27:18.383Z,99.90
2023-01-13T15:29:45.379Z,99.90
2023-01-13T15:32:17.667Z,99.90
2023-01-13T15:34:44.875Z,99.90
2023-01-13T15:37:11.675Z,99.90
2023-01-13T15:39:38.706Z,99.90
2023-01-13T15:42:24.087Z,99.90
2023-01-13T15:45:09.221Z,99.90
2023-01-13T15:47:36.087Z,99.90
2023-01-13T15:50:02.766Z,99.90
2023-01-13T15:52:29.649Z,99.90
2023-01-13T15:54:56.374Z,99.90
2023-01-13T15:57:24.089Z,99.90
2023-01-13T15:59:51.698Z,99.90
2023-01-13T16:02:18.548Z,99.90
2023-01-13T16:04:45.572Z,99.90
2023-01-13T16:07:13.684Z,99.90
2023-01-13T16:09:40.191Z,99.90
2023-01-13T16:12:06.817Z,99.90
2023-01-13T16:14:33.410Z,99.90
2023-01-13T16:17:00.802Z,99.90
2023-01-13T16:19:27.431Z,99.90
2023-01-13T16:21:54.089Z,99.90
2023-01-13T16:24:20.654Z,99.90
2023-01-13T16:26:47.381Z,99.90
2023-01-13T16:29:14.043Z,99.90
2023-01-13T16:31:40.720Z,99.90
2023-01-13T16:34:07.430Z,99.90
2023-01-13T16:36:35.651Z,99.90
2023-01-13T16:39:02.457Z,99.90
2023-01-13T16:41:29.089Z,99.90
2023-01-13T16:43:55.834Z,99.90
2023-01-13T16:46:27.105Z,99.90
2023-01-13T16:48:55.688Z,99.90
2023-01-13T16:51:22.696Z,99.90
2023-01-13T16:53:49.621Z,99.90
2023-01-13T16:56:18.740Z,99.90
2023-01-13T16:58:52.293Z,99.90
2023-01-13T17:01:21.194Z,99.90
2023-01-13T17:03:49.309Z,99.90
2023-01-13T17:06:17.204Z,99.90
2023-01-13T17:08:43.945Z,99.90
2023-01-13T17:11:10.721Z,99.90
2023-01-13T17:13:37.322Z,99.90
2023-01-13T17:16:04.222Z,99.90
2023-01-13T17:18:30.877Z,99.90
2023-01-13T17:20:58.952Z,99.90
2023-01-13T17:23:25.835Z,99.90
2023-01-13T17:25:54.647Z,99.90
2023-01-13T17:28:21.430Z,99.90
2023-01-13T17:30:48.264Z,99.90
2023-01-13T17:33:15.035Z,99.90
2023-01-13T17:35:41.781Z,99.90
2023-01-13T17:38:08.363Z,99.90
2023-01-13T17:40:36.381Z,99.90
2023-01-13T17:43:03.302Z,99.90
2023-01-13T17:45:30.107Z,99.90
2023-01-13T17:47:58.031Z,99.90
2023-01-13T17:50:24.956Z,99.90
2023-01-13T17:52:51.793Z,99.90
2023-01-13T17:55:18.451Z,99.90
2023-01-13T17:57:45.195Z,99.90
2023-01-13T18:00:12.378Z,99.90
2023-01-13T18:02:39.065Z,99.90
2023-01-13T18:05:05.836Z,99.90
2023-01-13T18:07:32.400Z,99.90
2023-01-13T18:09:58.904Z,99.90
2023-01-13T18:12:25.626Z,99.90
2023-01-13T18:14:52.150Z,99.90
2023-01-13T18:17:18.758Z,99.90
2023-01-13T18:20:03.817Z,99.90
2023-01-13T18:22:48.873Z,99.90
2023-01-13T18:25:33.911Z,99.90
2023-01-13T18:28:03.873Z,99.90
2023-01-13T18:30:30.584Z,99.90
2023-01-13T18:32:58.004Z,99.90
2023-01-13T18:35:24.714Z,99.90
2023-01-13T18:37:52.182Z,99.90
2023-01-13T18:40:18.856Z,99.90
2023-01-13T18:42:51.620Z,99.90
2023-01-13T18:45:28.731Z,99.90
2023-01-13T18:47:56.503Z,99.90
2023-01-13T18:50:23.417Z,99.90
2023-01-13T18:52:50.383Z,99.90
2023-01-13T18:55:17.081Z,99.90
2023-01-13T18:57:43.643Z,99.90
2023-01-13T19:00:11.708Z,99.90
2023-01-13T19:02:38.608Z,99.90
2023-01-13T19:05:05.451Z,99.90
2023-01-13T19:07:34.734Z,99.90
2023-01-13T19:10:01.643Z,99.90
2023-01-13T19:12:30.255Z,99.90
2023-01-13T19:14:57.592Z,99.90
2023-01-13T19:17:25.203Z,99.90
2023-01-13T19:19:53.588Z,99.90
2023-01-13T19:22:27.096Z,99.90
2023-01-13T19:24:53.949Z,99.90
2023-01-13T19:27:20.807Z,99.90
2023-01-13T19:29:52.504Z,99.90
2023-01-13T19:32:20.137Z,99.90
2023-01-13T19:34:47.758Z,99.90
2023-01-13T19:37:14.436Z,99.90
2023-01-13T19:39:41.027Z,99.90
2023-01-13T19:42:26.239Z,99.90
2023-01-13T19:45:11.224Z,99.90
2023-01-13T19:47:40.905Z,99.90
2023-01-13T19:50:08.554Z,99.90
2023-01-13T19:52:35.163Z,99.90
2023-01-13T19:55:02.071Z,99.90
2023-01-13T19:57:28.864Z,99.90
2023-01-13T19:59:55.480Z,99.90
2023-01-13T20:02:28.011Z,99.90
2023-01-13T20:04:55.969Z,99.90
2023-01-13T20:07:26.381Z,99.90
2023-01-13T20:09:53.089Z,99.90
2023-01-13T20:12:20.093Z,99.90
2023-01-13T20:14:49.925Z,99.90
2023-01-13T20:17:17.873Z,99.90
2023-01-13T20:19:44.578Z,99.90
2023-01-13T20:22:11.558Z,99.90
2023-01-13T20:24:38.193Z,99.90
2023-01-13T20:27:05.365Z,99.90
2023-01-13T20:29:32.167Z,99.90
2023-01-13T20:31:59.038Z,99.90
2023-01-13T20:34:25.786Z,99.90
2023-01-13T20:36:52.438Z,99.90
2023-01-13T20:39:23.173Z,99.90
2023-01-13T20:42:08.432Z,99.90
2023-01-13T20:44:35.396Z,99.90
2023-01-13T20:47:02.884Z,99.90
2023-01-13T20:49:30.300Z,99.90
2023-01-13T20:51:57.001Z,99.90
2023-01-13T20:54:23.881Z,99.90
2023-01-13T20:56:50.589Z,99.90
2023-01-13T20:59:17.241Z,99.90
2023-01-13T21:01:44.010Z,99.90
2023-01-13T21:04:10.889Z,99.90
2023-01-13T21:06:37.708Z,99.90
2023-01-13T21:09:04.339Z,99.90
2023-01-13T21:11:49.329Z,99.90
2023-01-13T21:14:35.857Z,99.90
2023-01-13T21:17:03.139Z,99.90
2023-01-13T21:19:29.850Z,99.90
2023-01-13T21:21:56.801Z,99.90
2023-01-13T21:24:24.332Z,99.90
2023-01-13T21:26:57.782Z,99.90
2023-01-13T21:29:24.451Z,99.90
2023-01-13T21:31:51.093Z,99.90
2023-01-13T21:34:17.661Z,99.90
2023-01-13T21:36:44.319Z,99.90
2023-01-13T21:39:11.128Z,99.90
2023-01-13T21:41:56.240Z,99.90
2023-01-13T21:44:41.178Z,99.90
2023-01-13T21:47:33.382Z,99.90
2023-01-13T21:50:00.443Z,99.90
2023-01-13T21:52:27.329Z,99.90
2023-01-13T21:55:12.593Z,99.90
2023-01-13T21:57:39.136Z,99.90
2023-01-13T22:00:05.953Z,99.90
2023-01-13T22:02:32.963Z,99.90
2023-01-13T22:05:00.126Z,99.90
2023-01-13T22:07:27.776Z,99.90
2023-01-13T22:09:54.806Z,99.90
2023-01-13T22:12:24.229Z,99.90
2023-01-13T22:14:51.731Z,99.90
2023-01-13T22:17:20.764Z,99.90
2023-01-13T22:19:47.873Z,99.90
2023-01-13T22:22:15.969Z,99.90
2023-01-13T22:24:47.093Z,99.90
2023-01-13T22:27:14.827Z,99.90
2023-01-13T22:29:42.386Z,99.90
2023-01-13T22:32:09.038Z,99.90
2023-01-13T22:34:35.701Z,99.90
2023-01-13T22:37:02.673Z,99.90
2023-01-13T22:39:29.274Z,99.90
2023-01-13T22:41:55.840Z,99.90
2023-01-13T22:44:22.689Z,99.90
2023-01-13T22:46:49.369Z,99.90
2023-01-13T22:49:16.415Z,99.90
2023-01-13T22:51:43.353Z,99.90
2023-01-13T22:54:10.369Z,99.90
2023-01-13T22:56:37.399Z,99.90
2023-01-13T23:01:34.012Z,99.90
2023-01-13T23:04:01.398Z,99.90
2023-01-13T23:06:30.567Z,99.90
2023-01-13T23:08:57.210Z,99.90
2023-01-13T23:11:25.192Z,99.90
2023-01-13T23:13:56.217Z,99.90
2023-01-13T23:16:23.211Z,99.90
2023-01-13T23:18:49.979Z,99.90
2023-01-13T23:21:17.995Z,99.90
2023-01-13T23:23:45.028Z,99.90
2023-01-13T23:26:12.167Z,99.90
2023-01-13T23:28:39.049Z,99.90
2023-01-13T23:31:09.818Z,99.90
2023-01-13T23:33:37.804Z,99.90
2023-01-13T23:36:05.712Z,99.90
2023-01-13T23:38:32.831Z,99.90
2023-01-13T23:40:59.732Z,99.90
2023-01-13T23:43:26.812Z,99.90
2023-01-13T23:46:00.688Z,99.90
2023-01-13T23:48:27.328Z,99.90
2023-01-13T23:50:58.011Z,99.90
2023-01-13T23:53:24.937Z,99.90
2023-01-13T23:55:56.288Z,99.90
2023-01-13T23:58:23.029Z,99.90
